sensor_id;sensor_type;location;lat;lon;timestamp;pressure;altitude;pressure_sealevel;temperature;humidity
45078;BME280;60508;42.622;25.416;2023-03-22T00:01:13;96391.13;;;12.92;65.92
45078;BME280;60508;42.622;25.416;2023-03-22T00:03:41;96388.38;;;12.82;66.56
45078;BME280;60508;42.622;25.416;2023-03-22T00:06:08;96380.81;;;12.74;66.46
45078;BME280;60508;42.622;25.416;2023-03-22T00:08:36;96392.19;;;12.76;66.56
45078;BME280;60508;42.622;25.416;2023-03-22T00:11:04;96385.16;;;12.75;66.60
45078;BME280;60508;42.622;25.416;2023-03-22T00:13:33;96382.19;;;12.82;66.60
45078;BME280;60508;42.622;25.416;2023-03-22T00:16:00;96377.59;;;12.82;66.33
45078;BME280;60508;42.622;25.416;2023-03-22T00:18:29;96381.94;;;12.83;65.83
45078;BME280;60508;42.622;25.416;2023-03-22T00:20:58;96381.13;;;12.88;66.51
45078;BME280;60508;42.622;25.416;2023-03-22T00:23:26;96377.91;;;12.96;65.98
45078;BME280;60508;42.622;25.416;2023-03-22T00:25:54;96377.38;;;12.99;65.58
45078;BME280;60508;42.622;25.416;2023-03-22T00:28:22;96368.22;;;13.05;65.01
45078;BME280;60508;42.622;25.416;2023-03-22T00:30:56;96369.53;;;13.03;64.77
45078;BME280;60508;42.622;25.416;2023-03-22T00:33:28;96370.06;;;12.89;65.64
45078;BME280;60508;42.622;25.416;2023-03-22T00:36:06;96370.88;;;12.69;66.09
45078;BME280;60508;42.622;25.416;2023-03-22T00:38:34;96368.72;;;12.66;67.07
45078;BME280;60508;42.622;25.416;2023-03-22T00:41:13;96361.69;;;12.70;66.78
45078;BME280;60508;42.622;25.416;2023-03-22T00:43:40;96365.75;;;12.68;67.39
45078;BME280;60508;42.622;25.416;2023-03-22T00:46:09;96364.91;;;12.62;67.73
45078;BME280;60508;42.622;25.416;2023-03-22T00:48:38;96369.75;;;12.60;68.21
45078;BME280;60508;42.622;25.416;2023-03-22T00:51:06;96368.94;;;12.59;68.10
45078;BME280;60508;42.622;25.416;2023-03-22T00:53:37;96381.59;;;12.49;68.41
45078;BME280;60508;42.622;25.416;2023-03-22T00:56:15;96376.72;;;12.40;68.57
45078;BME280;60508;42.622;25.416;2023-03-22T00:58:47;96369.69;;;12.29;69.47
45078;BME280;60508;42.622;25.416;2023-03-22T01:01:16;96361.56;;;12.19;70.04
45078;BME280;60508;42.622;25.416;2023-03-22T01:03:44;96375.09;;;12.34;69.94
45078;BME280;60508;42.622;25.416;2023-03-22T01:06:15;96374.03;;;12.40;69.72
45078;BME280;60508;42.622;25.416;2023-03-22T01:08:42;96367.44;;;12.11;71.01
45078;BME280;60508;42.622;25.416;2023-03-22T01:11:10;96370.97;;;12.16;70.84
45078;BME280;60508;42.622;25.416;2023-03-22T01:13:38;96367.00;;;12.34;70.82
45078;BME280;60508;42.622;25.416;2023-03-22T01:16:10;96371.03;;;12.37;70.36
45078;BME280;60508;42.622;25.416;2023-03-22T01:18:38;96373.19;;;12.30;70.90
45078;BME280;60508;42.622;25.416;2023-03-22T01:21:06;96370.72;;;12.18;70.68
45078;BME280;60508;42.622;25.416;2023-03-22T01:23:34;96371.28;;;12.25;70.57
45078;BME280;60508;42.622;25.416;2023-03-22T01:26:02;96371.53;;;12.23;70.96
45078;BME280;60508;42.622;25.416;2023-03-22T01:28:30;96369.38;;;12.20;70.84
45078;BME280;60508;42.622;25.416;2023-03-22T01:31:01;96374.72;;;12.05;71.18
45078;BME280;60508;42.622;25.416;2023-03-22T01:33:29;96376.28;;;11.96;72.11
45078;BME280;60508;42.622;25.416;2023-03-22T01:35:57;96378.69;;;11.92;71.60
45078;BME280;60508;42.622;25.416;2023-03-22T01:38:24;96369.97;;;11.80;71.61
45078;BME280;60508;42.622;25.416;2023-03-22T01:40:59;96369.97;;;11.80;71.79
45078;BME280;60508;42.622;25.416;2023-03-22T01:43:29;96360.81;;;11.76;72.06
45078;BME280;60508;42.622;25.416;2023-03-22T01:45:58;96367.53;;;11.78;71.47
45078;BME280;60508;42.622;25.416;2023-03-22T01:48:34;96357.31;;;11.80;71.45
45078;BME280;60508;42.622;25.416;2023-03-22T01:53:46;96364.91;;;11.88;70.29
45078;BME280;60508;42.622;25.416;2023-03-22T01:56:17;96365.19;;;11.87;69.99
45078;BME280;60508;42.622;25.416;2023-03-22T01:58:47;96367.91;;;11.92;69.41
45078;BME280;60508;42.622;25.416;2023-03-22T02:01:18;96377.00;;;11.86;69.65
45078;BME280;60508;42.622;25.416;2023-03-22T02:04:03;96372.94;;;11.83;69.35
45078;BME280;60508;42.622;25.416;2023-03-22T02:06:34;96371.59;;;11.81;69.80
45078;BME280;60508;42.622;25.416;2023-03-22T02:09:14;96368.94;;;11.86;69.51
45078;BME280;60508;42.622;25.416;2023-03-22T02:11:48;96375.63;;;11.83;69.72
45078;BME280;60508;42.622;25.416;2023-03-22T02:14:30;96374.84;;;11.88;69.46
45078;BME280;60508;42.622;25.416;2023-03-22T02:17:36;96363.56;;;11.91;69.12
45078;BME280;60508;42.622;25.416;2023-03-22T02:26:18;96366.81;;;11.93;68.77
45078;BME280;60508;42.622;25.416;2023-03-22T02:29:27;96359.84;;;11.97;68.20
45078;BME280;60508;42.622;25.416;2023-03-22T02:45:44;96365.91;;;12.30;67.41
45078;BME280;60508;42.622;25.416;2023-03-22T02:50:56;96364.56;;;12.33;67.61
45078;BME280;60508;42.622;25.416;2023-03-22T02:54:03;96364.81;;;12.26;67.32
45078;BME280;60508;42.622;25.416;2023-03-22T02:56:33;96365.34;;;12.23;67.97
45078;BME280;60508;42.622;25.416;2023-03-22T02:59:11;96370.47;;;12.19;67.77
45078;BME280;60508;42.622;25.416;2023-03-22T03:01:42;96362.91;;;12.16;67.88
45078;BME280;60508;42.622;25.416;2023-03-22T03:04:16;96358.56;;;12.10;68.15
45078;BME280;60508;42.622;25.416;2023-03-22T03:06:47;96352.84;;;11.96;68.35
45078;BME280;60508;42.622;25.416;2023-03-22T03:09:19;96366.63;;;12.05;68.05
45078;BME280;60508;42.622;25.416;2023-03-22T03:11:48;96374.38;;;11.96;68.49
45078;BME280;60508;42.622;25.416;2023-03-22T03:14:30;96382.13;;;11.87;68.57
45078;BME280;60508;42.622;25.416;2023-03-22T03:36:48;96346.31;;;11.39;69.99
45078;BME280;60508;42.622;25.416;2023-03-22T03:39:19;96345.47;;;11.33;70.74
45078;BME280;60508;42.622;25.416;2023-03-22T03:41:47;96334.13;;;11.26;71.35
45078;BME280;60508;42.622;25.416;2023-03-22T03:44:16;96340.53;;;11.20;71.88
45078;BME280;60508;42.622;25.416;2023-03-22T03:46:46;96340.25;;;11.17;72.16
45078;BME280;60508;42.622;25.416;2023-03-22T03:49:15;96343.72;;;11.12;73.08
45078;BME280;60508;42.622;25.416;2023-03-22T03:51:51;96348.53;;;11.10;73.02
45078;BME280;60508;42.622;25.416;2023-03-22T03:54:20;96359.31;;;11.15;72.93
45078;BME280;60508;42.622;25.416;2023-03-22T03:56:48;96369.59;;;11.23;72.73
45078;BME280;60508;42.622;25.416;2023-03-22T03:59:17;96374.47;;;11.26;73.00
45078;BME280;60508;42.622;25.416;2023-03-22T04:01:47;96370.47;;;11.29;73.45
45078;BME280;60508;42.622;25.416;2023-03-22T04:04:26;96361.03;;;11.26;73.61
45078;BME280;60508;42.622;25.416;2023-03-22T04:07:03;96371.78;;;11.26;73.42
45078;BME280;60508;42.622;25.416;2023-03-22T04:09:33;96368.59;;;11.29;72.79
45078;BME280;60508;42.622;25.416;2023-03-22T04:12:14;96370.22;;;11.30;72.72
45078;BME280;60508;42.622;25.416;2023-03-22T04:14:48;96363.19;;;11.29;72.82
45078;BME280;60508;42.622;25.416;2023-03-22T04:17:22;96368.72;;;11.50;71.91
45078;BME280;60508;42.622;25.416;2023-03-22T04:19:50;96379.31;;;11.67;71.28
45078;BME280;60508;42.622;25.416;2023-03-22T04:22:19;96379.03;;;11.63;71.69
45078;BME280;60508;42.622;25.416;2023-03-22T04:24:47;96376.63;;;11.67;71.62
45078;BME280;60508;42.622;25.416;2023-03-22T04:27:18;96377.13;;;11.64;71.37
45078;BME280;60508;42.622;25.416;2023-03-22T04:29:55;96379.94;;;11.79;70.76
45078;BME280;60508;42.622;25.416;2023-03-22T04:32:53;96378.84;;;11.80;70.09
45078;BME280;60508;42.622;25.416;2023-03-22T04:35:34;96385.72;;;11.61;70.69
45078;BME280;60508;42.622;25.416;2023-03-22T04:38:01;96376.47;;;11.46;71.61
45078;BME280;60508;42.622;25.416;2023-03-22T04:40:28;96383.00;;;11.56;71.60
45078;BME280;60508;42.622;25.416;2023-03-22T04:43:05;96385.41;;;11.52;72.03
45078;BME280;60508;42.622;25.416;2023-03-22T04:45:47;96373.09;;;11.61;71.59
45078;BME280;60508;42.622;25.416;2023-03-22T04:48:20;96389.81;;;11.68;71.32
45078;BME280;60508;42.622;25.416;2023-03-22T04:50:48;96398.94;;;11.67;70.73
45078;BME280;60508;42.622;25.416;2023-03-22T04:53:24;96397.00;;;11.58;71.38
45078;BME280;60508;42.622;25.416;2023-03-22T04:55:56;96392.31;;;11.80;70.39
45078;BME280;60508;42.622;25.416;2023-03-22T04:58:25;96368.25;;;11.63;70.39
45078;BME280;60508;42.622;25.416;2023-03-22T05:00:52;96384.09;;;11.55;70.32
45078;BME280;60508;42.622;25.416;2023-03-22T05:03:23;96391.59;;;11.52;71.01
45078;BME280;60508;42.622;25.416;2023-03-22T05:06:02;96396.44;;;11.50;71.42
45078;BME280;60508;42.622;25.416;2023-03-22T05:08:40;96401.84;;;11.56;71.43
45078;BME280;60508;42.622;25.416;2023-03-22T05:11:16;96402.94;;;11.55;71.47
45078;BME280;60508;42.622;25.416;2023-03-22T05:13:55;96408.75;;;11.46;72.47
45078;BME280;60508;42.622;25.416;2023-03-22T05:16:26;96416.94;;;11.57;72.48
45078;BME280;60508;42.622;25.416;2023-03-22T05:18:54;96416.56;;;11.48;72.83
45078;BME280;60508;42.622;25.416;2023-03-22T05:21:24;96418.84;;;11.61;72.39
45078;BME280;60508;42.622;25.416;2023-03-22T05:23:57;96426.19;;;11.71;72.10
45078;BME280;60508;42.622;25.416;2023-03-22T05:26:25;96431.84;;;11.75;71.78
45078;BME280;60508;42.622;25.416;2023-03-22T05:28:54;96442.31;;;11.71;72.08
45078;BME280;60508;42.622;25.416;2023-03-22T05:31:31;96447.13;;;11.69;72.41
45078;BME280;60508;42.622;25.416;2023-03-22T05:34:02;96448.75;;;11.70;72.54
45078;BME280;60508;42.622;25.416;2023-03-22T05:36:31;96455.28;;;11.79;72.60
45078;BME280;60508;42.622;25.416;2023-03-22T05:39:17;96452.91;;;11.88;71.97
45078;BME280;60508;42.622;25.416;2023-03-22T05:41:46;96455.09;;;11.91;71.99
45078;BME280;60508;42.622;25.416;2023-03-22T05:44:15;96459.47;;;11.97;71.64
45078;BME280;60508;42.622;25.416;2023-03-22T05:46:52;96457.94;;;12.12;71.21
45078;BME280;60508;42.622;25.416;2023-03-22T05:49:27;96466.06;;;12.22;71.14
45078;BME280;60508;42.622;25.416;2023-03-22T05:51:55;96464.22;;;12.22;71.18
45078;BME280;60508;42.622;25.416;2023-03-22T05:54:25;96470.44;;;12.33;70.86
45078;BME280;60508;42.622;25.416;2023-03-22T05:56:53;96465.75;;;12.13;71.29
45078;BME280;60508;42.622;25.416;2023-03-22T05:59:20;96472.47;;;12.11;71.78
45078;BME280;60508;42.622;25.416;2023-03-22T06:01:47;96466.81;;;12.12;71.40
45078;BME280;60508;42.622;25.416;2023-03-22T06:04:21;96474.53;;;12.41;70.28
45078;BME280;60508;42.622;25.416;2023-03-22T06:06:57;96478.22;;;12.24;70.57
45078;BME280;60508;42.622;25.416;2023-03-22T06:09:40;96486.56;;;12.23;71.05
45078;BME280;60508;42.622;25.416;2023-03-22T06:12:13;96481.41;;;12.16;71.09
45078;BME280;60508;42.622;25.416;2023-03-22T06:14:43;96484.09;;;12.16;71.25
45078;BME280;60508;42.622;25.416;2023-03-22T06:17:50;96472.22;;;12.17;71.29
45078;BME280;60508;42.622;25.416;2023-03-22T06:20:22;96473.47;;;12.42;70.46
45078;BME280;60508;42.622;25.416;2023-03-22T06:22:56;96484.53;;;12.56;69.75
45078;BME280;60508;42.622;25.416;2023-03-22T06:25:24;96479.72;;;12.58;70.26
45078;BME280;60508;42.622;25.416;2023-03-22T06:27:52;96480.78;;;12.57;70.11
45078;BME280;60508;42.622;25.416;2023-03-22T06:30:23;96483.22;;;12.64;70.13
45078;BME280;60508;42.622;25.416;2023-03-22T06:33:11;96487.81;;;12.58;70.07
45078;BME280;60508;42.622;25.416;2023-03-22T06:35:42;96491.84;;;12.55;69.85
45078;BME280;60508;42.622;25.416;2023-03-22T06:38:14;96493.22;;;12.63;69.74
45078;BME280;60508;42.622;25.416;2023-03-22T06:40:42;96505.03;;;12.57;70.07
45078;BME280;60508;42.622;25.416;2023-03-22T06:43:10;96504.53;;;12.60;70.11
45078;BME280;60508;42.622;25.416;2023-03-22T06:45:41;96502.06;;;12.53;69.80
45078;BME280;60508;42.622;25.416;2023-03-22T06:48:09;96507.97;;;12.50;70.96
45078;BME280;60508;42.622;25.416;2023-03-22T06:50:56;96511.72;;;12.44;71.07
45078;BME280;60508;42.622;25.416;2023-03-22T06:53:27;96521.63;;;12.38;71.71
45078;BME280;60508;42.622;25.416;2023-03-22T06:55:55;96520.28;;;12.36;71.83
45078;BME280;60508;42.622;25.416;2023-03-22T06:58:24;96525.69;;;12.36;72.13
45078;BME280;60508;42.622;25.416;2023-03-22T07:00:54;96520.06;;;12.42;72.10
45078;BME280;60508;42.622;25.416;2023-03-22T07:03:25;96523.88;;;12.47;72.01
45078;BME280;60508;42.622;25.416;2023-03-22T07:06:05;96526.00;;;12.50;72.33
45078;BME280;60508;42.622;25.416;2023-03-22T07:08:37;96524.94;;;12.51;72.73
45078;BME280;60508;42.622;25.416;2023-03-22T07:11:06;96526.25;;;12.43;73.78
45078;BME280;60508;42.622;25.416;2023-03-22T07:13:34;96531.09;;;12.41;73.44
45078;BME280;60508;42.622;25.416;2023-03-22T07:16:25;96527.34;;;12.42;73.12
45078;BME280;60508;42.622;25.416;2023-03-22T07:18:55;96515.19;;;12.39;73.35
45078;BME280;60508;42.622;25.416;2023-03-22T07:21:25;96514.94;;;12.46;74.03
45078;BME280;60508;42.622;25.416;2023-03-22T07:23:57;96523.00;;;12.41;74.53
45078;BME280;60508;42.622;25.416;2023-03-22T07:26:27;96523.25;;;12.34;75.23
45078;BME280;60508;42.622;25.416;2023-03-22T07:28:58;96530.56;;;12.39;75.77
45078;BME280;60508;42.622;25.416;2023-03-22T07:31:30;96533.28;;;12.49;74.93
45078;BME280;60508;42.622;25.416;2023-03-22T07:34:05;96534.41;;;12.53;75.05
45078;BME280;60508;42.622;25.416;2023-03-22T07:36:48;96536.22;;;12.37;75.88
45078;BME280;60508;42.622;25.416;2023-03-22T07:39:16;96536.00;;;12.54;75.33
45078;BME280;60508;42.622;25.416;2023-03-22T07:41:46;96527.41;;;12.57;75.76
45078;BME280;60508;42.622;25.416;2023-03-22T07:44:25;96528.19;;;12.53;75.57
45078;BME280;60508;42.622;25.416;2023-03-22T07:47:21;96521.69;;;12.44;75.71
45078;BME280;60508;42.622;25.416;2023-03-22T07:50:05;96535.47;;;12.52;75.53
45078;BME280;60508;42.622;25.416;2023-03-22T07:52:34;96522.25;;;12.51;75.52
45078;BME280;60508;42.622;25.416;2023-03-22T07:55:02;96534.41;;;12.53;75.77
45078;BME280;60508;42.622;25.416;2023-03-22T07:57:31;96535.19;;;12.49;76.12
45078;BME280;60508;42.622;25.416;2023-03-22T08:00:00;96537.41;;;12.67;76.24
45078;BME280;60508;42.622;25.416;2023-03-22T08:02:42;96543.41;;;12.79;75.75
45078;BME280;60508;42.622;25.416;2023-03-22T08:05:17;96547.53;;;13.03;74.75
45078;BME280;60508;42.622;25.416;2023-03-22T08:07:51;96545.41;;;13.10;73.92
45078;BME280;60508;42.622;25.416;2023-03-22T08:10:22;96552.41;;;13.11;73.49
45078;BME280;60508;42.622;25.416;2023-03-22T08:13:02;96556.16;;;12.94;73.71
45078;BME280;60508;42.622;25.416;2023-03-22T08:15:30;96572.31;;;12.89;75.13
45078;BME280;60508;42.622;25.416;2023-03-22T08:17:58;96565.28;;;12.93;75.19
45078;BME280;60508;42.622;25.416;2023-03-22T08:20:37;96569.53;;;12.74;75.86
45078;BME280;60508;42.622;25.416;2023-03-22T08:23:11;96565.25;;;12.83;76.50
45078;BME280;60508;42.622;25.416;2023-03-22T08:26:21;96564.22;;;12.94;76.28
45078;BME280;60508;42.622;25.416;2023-03-22T08:28:53;96573.16;;;13.00;76.84
45078;BME280;60508;42.622;25.416;2023-03-22T08:31:24;96572.28;;;12.79;75.70
45078;BME280;60508;42.622;25.416;2023-03-22T08:33:52;96584.25;;;12.56;77.02
45078;BME280;60508;42.622;25.416;2023-03-22T08:36:20;96591.44;;;12.40;76.60
45078;BME280;60508;42.622;25.416;2023-03-22T08:39:01;96585.25;;;12.39;77.12
45078;BME280;60508;42.622;25.416;2023-03-22T08:41:41;96591.53;;;12.50;76.68
45078;BME280;60508;42.622;25.416;2023-03-22T08:44:09;96588.44;;;12.79;76.32
45078;BME280;60508;42.622;25.416;2023-03-22T08:46:37;96587.81;;;13.30;76.00
45078;BME280;60508;42.622;25.416;2023-03-22T08:49:06;96593.34;;;13.92;73.61
45078;BME280;60508;42.622;25.416;2023-03-22T08:51:41;96571.41;;;14.55;71.00
45078;BME280;60508;42.622;25.416;2023-03-22T08:54:17;96589.34;;;15.26;66.76
45078;BME280;60508;42.622;25.416;2023-03-22T08:56:55;96581.22;;;15.71;64.65
45078;BME280;60508;42.622;25.416;2023-03-22T08:59:46;96592.34;;;15.14;65.01
45078;BME280;60508;42.622;25.416;2023-03-22T09:02:33;96584.66;;;15.87;63.64
45078;BME280;60508;42.622;25.416;2023-03-22T09:05:03;96586.28;;;16.52;59.72
45078;BME280;60508;42.622;25.416;2023-03-22T09:07:31;96587.00;;;16.33;59.04
45078;BME280;60508;42.622;25.416;2023-03-22T09:10:17;96581.94;;;15.87;59.99
45078;BME280;60508;42.622;25.416;2023-03-22T09:12:50;96579.47;;;16.54;58.54
45078;BME280;60508;42.622;25.416;2023-03-22T09:15:18;96577.66;;;17.79;55.85
45078;BME280;60508;42.622;25.416;2023-03-22T09:17:52;96584.09;;;20.02;49.50
45078;BME280;60508;42.622;25.416;2023-03-22T09:20:20;96580.03;;;21.65;44.97
45078;BME280;60508;42.622;25.416;2023-03-22T09:22:51;96578.50;;;22.72;40.80
45078;BME280;60508;42.622;25.416;2023-03-22T09:25:24;96572.00;;;22.21;39.51
45078;BME280;60508;42.622;25.416;2023-03-22T09:27:52;96567.09;;;21.30;41.08
45078;BME280;60508;42.622;25.416;2023-03-22T09:30:19;96570.59;;;20.73;41.38
45078;BME280;60508;42.622;25.416;2023-03-22T09:32:51;96566.13;;;20.55;40.60
45078;BME280;60508;42.622;25.416;2023-03-22T09:35:18;96565.25;;;20.37;40.43
45078;BME280;60508;42.622;25.416;2023-03-22T09:37:59;96558.22;;;20.76;39.42
45078;BME280;60508;42.622;25.416;2023-03-22T09:40:31;96553.91;;;21.32;38.78
45078;BME280;60508;42.622;25.416;2023-03-22T09:43:02;96551.84;;;21.38;39.27
45078;BME280;60508;42.622;25.416;2023-03-22T09:45:39;96550.69;;;20.19;42.89
45078;BME280;60508;42.622;25.416;2023-03-22T09:48:16;96551.47;;;19.10;44.60
45078;BME280;60508;42.622;25.416;2023-03-22T09:50:47;96548.94;;;18.58;47.29
45078;BME280;60508;42.622;25.416;2023-03-22T09:53:17;96560.78;;;18.34;47.49
45078;BME280;60508;42.622;25.416;2023-03-22T09:59:19;96561.53;;;17.07;50.03
45078;BME280;60508;42.622;25.416;2023-03-22T10:02:17;96564.31;;;16.77;50.73
45078;BME280;60508;42.622;25.416;2023-03-22T10:05:13;96570.06;;;16.17;54.37
45078;BME280;60508;42.622;25.416;2023-03-22T10:08:09;96572.00;;;15.72;55.91
45078;BME280;60508;42.622;25.416;2023-03-22T10:10:40;96579.13;;;15.58;57.33
45078;BME280;60508;42.622;25.416;2023-03-22T10:13:20;96556.41;;;15.59;56.05
45078;BME280;60508;42.622;25.416;2023-03-22T10:15:52;96568.63;;;16.25;53.53
45078;BME280;60508;42.622;25.416;2023-03-22T10:20:59;96563.16;;;17.51;49.38
45078;BME280;60508;42.622;25.416;2023-03-22T10:23:40;96565.41;;;17.82;47.38
45078;BME280;60508;42.622;25.416;2023-03-22T10:26:20;96565.03;;;18.08;47.02
45078;BME280;60508;42.622;25.416;2023-03-22T10:28:58;96570.22;;;18.23;45.88
45078;BME280;60508;42.622;25.416;2023-03-22T10:31:37;96558.00;;;17.87;44.79
45078;BME280;60508;42.622;25.416;2023-03-22T10:34:09;96560.50;;;17.65;46.49
45078;BME280;60508;42.622;25.416;2023-03-22T10:36:40;96561.84;;;18.19;44.18
45078;BME280;60508;42.622;25.416;2023-03-22T10:39:30;96555.59;;;18.66;41.44
45078;BME280;60508;42.622;25.416;2023-03-22T10:42:01;96553.38;;;18.68;40.18
45078;BME280;60508;42.622;25.416;2023-03-22T10:44:31;96546.50;;;18.56;40.12
45078;BME280;60508;42.622;25.416;2023-03-22T10:47:04;96545.34;;;19.04;39.58
45078;BME280;60508;42.622;25.416;2023-03-22T10:49:38;96542.50;;;18.95;39.11
45078;BME280;60508;42.622;25.416;2023-03-22T10:54:49;96540.28;;;18.09;40.03
45078;BME280;60508;42.622;25.416;2023-03-22T10:57:17;96542.72;;;17.92;41.97
45078;BME280;60508;42.622;25.416;2023-03-22T10:59:49;96547.38;;;17.91;40.78
45078;BME280;60508;42.622;25.416;2023-03-22T11:02:29;96529.19;;;18.05;40.17
45078;BME280;60508;42.622;25.416;2023-03-22T11:05:03;96547.31;;;18.43;39.00
45078;BME280;60508;42.622;25.416;2023-03-22T11:07:42;96544.50;;;18.48;38.20
45078;BME280;60508;42.622;25.416;2023-03-22T11:10:16;96549.97;;;19.31;37.63
45078;BME280;60508;42.622;25.416;2023-03-22T11:15:38;96541.13;;;21.68;33.38
45078;BME280;60508;42.622;25.416;2023-03-22T11:18:10;96529.03;;;22.77;31.44
45078;BME280;60508;42.622;25.416;2023-03-22T11:20:42;96540.78;;;22.78;31.40
45078;BME280;60508;42.622;25.416;2023-03-22T11:23:19;96530.75;;;22.43;31.71
45078;BME280;60508;42.622;25.416;2023-03-22T11:25:48;96536.63;;;21.81;32.01
45078;BME280;60508;42.622;25.416;2023-03-22T11:28:19;96530.50;;;22.01;32.12
45078;BME280;60508;42.622;25.416;2023-03-22T11:31:09;96535.50;;;20.58;33.33
45078;BME280;60508;42.622;25.416;2023-03-22T11:33:59;96536.97;;;20.10;34.03
45078;BME280;60508;42.622;25.416;2023-03-22T11:36:29;96523.66;;;20.09;33.89
45078;BME280;60508;42.622;25.416;2023-03-22T11:38:58;96528.97;;;19.18;36.06
45078;BME280;60508;42.622;25.416;2023-03-22T11:41:27;96521.94;;;19.17;36.99
45078;BME280;60508;42.622;25.416;2023-03-22T11:43:57;96529.44;;;19.48;38.10
45078;BME280;60508;42.622;25.416;2023-03-22T11:46:28;96520.66;;;19.74;38.39
45078;BME280;60508;42.622;25.416;2023-03-22T11:49:12;96526.03;;;19.79;37.88
45078;BME280;60508;42.622;25.416;2023-03-22T11:51:41;96532.09;;;19.76;37.74
45078;BME280;60508;42.622;25.416;2023-03-22T11:54:25;96536.44;;;19.77;37.89
45078;BME280;60508;42.622;25.416;2023-03-22T11:56:56;96522.69;;;19.68;38.77
45078;BME280;60508;42.622;25.416;2023-03-22T11:59:27;96523.75;;;19.08;38.84
45078;BME280;60508;42.622;25.416;2023-03-22T12:02:17;96522.00;;;18.29;40.39
45078;BME280;60508;42.622;25.416;2023-03-22T12:04:47;96531.06;;;17.91;40.92
45078;BME280;60508;42.622;25.416;2023-03-22T12:07:17;96524.00;;;17.52;42.47
45078;BME280;60508;42.622;25.416;2023-03-22T12:10:11;96527.91;;;17.27;43.27
45078;BME280;60508;42.622;25.416;2023-03-22T12:12:51;96537.34;;;17.29;43.07
45078;BME280;60508;42.622;25.416;2023-03-22T12:15:26;96531.69;;;17.07;43.48
45078;BME280;60508;42.622;25.416;2023-03-22T12:23:13;96528.25;;;16.23;43.75
45078;BME280;60508;42.622;25.416;2023-03-22T12:26:13;96536.66;;;15.93;45.22
45078;BME280;60508;42.622;25.416;2023-03-22T12:28:59;96534.88;;;15.73;45.32
45078;BME280;60508;42.622;25.416;2023-03-22T12:34:07;96549.66;;;15.51;46.06
45078;BME280;60508;42.622;25.416;2023-03-22T12:36:45;96541.34;;;15.42;46.45
45078;BME280;60508;42.622;25.416;2023-03-22T12:39:32;96553.22;;;15.46;46.89
45078;BME280;60508;42.622;25.416;2023-03-22T12:42:12;96550.50;;;15.46;47.13
45078;BME280;60508;42.622;25.416;2023-03-22T12:44:44;96549.19;;;15.39;47.62
45078;BME280;60508;42.622;25.416;2023-03-22T12:47:23;96556.03;;;15.31;47.69
45078;BME280;60508;42.622;25.416;2023-03-22T12:49:59;96553.72;;;15.04;48.72
45078;BME280;60508;42.622;25.416;2023-03-22T12:55:00;96554.50;;;15.09;47.42
45078;BME280;60508;42.622;25.416;2023-03-22T12:57:30;96555.59;;;15.08;47.81
45078;BME280;60508;42.622;25.416;2023-03-22T13:00:06;96559.69;;;15.01;48.44
45078;BME280;60508;42.622;25.416;2023-03-22T13:02:46;96557.50;;;15.03;48.87
45078;BME280;60508;42.622;25.416;2023-03-22T13:05:16;96565.66;;;14.97;50.08
45078;BME280;60508;42.622;25.416;2023-03-22T13:07:51;96562.44;;;14.85;50.57
45078;BME280;60508;42.622;25.416;2023-03-22T13:19:15;96570.34;;;14.71;54.20
45078;BME280;60508;42.622;25.416;2023-03-22T13:21:23;96568.19;;;14.53;57.09
45078;BME280;60508;42.622;25.416;2023-03-22T13:26:45;96571.44;;;14.45;60.03
45078;BME280;60508;42.622;25.416;2023-03-22T13:29:22;96562.81;;;14.27;60.69
45078;BME280;60508;42.622;25.416;2023-03-22T13:32:28;96563.91;;;14.21;61.23
45078;BME280;60508;42.622;25.416;2023-03-22T13:34:57;96561.19;;;14.31;63.84
45078;BME280;60508;42.622;25.416;2023-03-22T13:37:36;96563.06;;;14.41;63.03
45078;BME280;60508;42.622;25.416;2023-03-22T13:40:25;96561.97;;;14.42;63.01
45078;BME280;60508;42.622;25.416;2023-03-22T13:43:54;96559.81;;;14.44;62.82
45078;BME280;60508;42.622;25.416;2023-03-22T13:49:14;96566.56;;;14.47;63.15
45078;BME280;60508;42.622;25.416;2023-03-22T13:51:39;96560.91;;;14.38;63.31
45078;BME280;60508;42.622;25.416;2023-03-22T13:54:16;96562.53;;;14.39;63.77
45078;BME280;60508;42.622;25.416;2023-03-22T14:10:44;96556.03;;;14.45;64.15
45078;BME280;60508;42.622;25.416;2023-03-22T14:13:01;96555.19;;;14.50;64.89
45078;BME280;60508;42.622;25.416;2023-03-22T14:15:37;96556.31;;;14.38;64.18
45078;BME280;60508;42.622;25.416;2023-03-22T14:18:31;96553.09;;;14.31;64.66
45078;BME280;60508;42.622;25.416;2023-03-22T14:21:05;96558.75;;;14.40;64.02
45078;BME280;60508;42.622;25.416;2023-03-22T14:23:38;96553.34;;;14.35;63.98
45078;BME280;60508;42.622;25.416;2023-03-22T14:26:17;96565.25;;;14.29;64.71
45078;BME280;60508;42.622;25.416;2023-03-22T14:28:49;96570.13;;;14.21;64.03
45078;BME280;60508;42.622;25.416;2023-03-22T14:31:26;96572.31;;;13.99;63.84
45078;BME280;60508;42.622;25.416;2023-03-22T14:34:02;96567.16;;;13.82;64.60
45078;BME280;60508;42.622;25.416;2023-03-22T14:36:40;96569.84;;;13.87;64.32
45078;BME280;60508;42.622;25.416;2023-03-22T14:39:18;96570.91;;;13.76;64.39
45078;BME280;60508;42.622;25.416;2023-03-22T14:44:28;96576.84;;;13.67;65.77
45078;BME280;60508;42.622;25.416;2023-03-22T14:47:23;96565.25;;;13.62;66.62
45078;BME280;60508;42.622;25.416;2023-03-22T14:49:56;96569.81;;;13.56;66.94
45078;BME280;60508;42.622;25.416;2023-03-22T14:52:33;96566.31;;;13.45;68.32
45078;BME280;60508;42.622;25.416;2023-03-22T14:55:09;96564.69;;;13.34;68.42
45078;BME280;60508;42.622;25.416;2023-03-22T14:57:55;96574.09;;;13.37;67.85
45078;BME280;60508;42.622;25.416;2023-03-22T15:00:25;96578.97;;;13.40;67.69
45078;BME280;60508;42.622;25.416;2023-03-22T15:02:57;96574.03;;;13.21;68.08
45078;BME280;60508;42.622;25.416;2023-03-22T15:05:43;96580.78;;;13.24;68.87